createdAt,value
2022-11-16T00:00:01.493Z,9.72
2022-11-16T00:02:31.746Z,9.70
2022-11-16T00:04:58.600Z,9.79
2022-11-16T00:07:25.414Z,9.78
2022-11-16T00:09:52.275Z,9.80
2022-11-16T00:12:19.112Z,9.86
2022-11-16T00:14:45.942Z,9.90
2022-11-16T00:17:12.731Z,9.88
2022-11-16T00:19:39.467Z,9.99
2022-11-16T00:22:06.177Z,9.87
2022-11-16T00:24:32.907Z,9.82
2022-11-16T00:26:59.638Z,9.89
2022-11-16T00:29:27.505Z,9.89
2022-11-16T00:31:54.677Z,9.86
2022-11-16T00:34:22.545Z,9.80
2022-11-16T00:36:49.606Z,10.04
2022-11-16T00:39:17.411Z,10.13
2022-11-16T00:41:46.714Z,10.22
2022-11-16T00:44:13.759Z,10.06
2022-11-16T00:46:40.987Z,9.99
2022-11-16T00:49:08.399Z,10.16
2022-11-16T00:51:36.053Z,9.99
2022-11-16T00:54:04.123Z,9.98
2022-11-16T00:56:33.542Z,10.01
2022-11-16T00:59:01.266Z,10.04
2022-11-16T01:01:28.097Z,10.14
2022-11-16T01:03:55.364Z,10.16
2022-11-16T01:06:23.503Z,10.23
2022-11-16T01:08:50.548Z,10.10
2022-11-16T01:11:36.050Z,10.18
2022-11-16T01:14:04.822Z,10.34
2022-11-16T01:16:32.054Z,10.22
2022-11-16T01:18:58.873Z,10.15
2022-11-16T01:21:26.131Z,10.11
2022-11-16T01:23:53.078Z,10.22
2022-11-16T01:26:20.021Z,10.45
2022-11-16T01:28:47.150Z,10.38
2022-11-16T01:31:14.376Z,10.37
2022-11-16T01:33:42.391Z,10.47
2022-11-16T01:36:18.100Z,10.41
2022-11-16T01:38:47.253Z,10.40
2022-11-16T01:41:18.729Z,10.40
2022-11-16T01:43:56.773Z,10.48
2022-11-16T01:46:27.870Z,10.63
2022-11-16T01:49:07.980Z,10.64
2022-11-16T01:51:35.201Z,10.46
2022-11-16T01:54:05.907Z,10.65
2022-11-16T01:56:36.320Z,10.50
2022-11-16T01:59:12.537Z,10.66
2022-11-16T02:01:39.374Z,10.70
2022-11-16T02:04:06.999Z,10.58
2022-11-16T02:07:03.208Z,10.56
2022-11-16T02:10:01.023Z,10.40
2022-11-16T02:13:22.194Z,10.40
2022-11-16T02:16:00.787Z,10.43
2022-11-16T02:18:39.115Z,10.43
2022-11-16T02:21:12.155Z,10.43
2022-11-16T02:23:45.093Z,10.32
2022-11-16T02:26:27.128Z,10.40
2022-11-16T02:29:18.646Z,10.43
2022-11-16T02:32:15.170Z,10.31
2022-11-16T02:34:55.202Z,10.34
2022-11-16T02:37:24.941Z,10.27
2022-11-16T02:39:58.562Z,10.30
2022-11-16T02:42:31.323Z,10.20
2022-11-16T02:44:59.135Z,10.13
2022-11-16T02:47:30.745Z,10.03
2022-11-16T02:50:14.242Z,10.00
2022-11-16T02:52:41.020Z,10.01
2022-11-16T02:55:09.876Z,9.84
2022-11-16T02:57:49.381Z,9.87
2022-11-16T03:00:43.661Z,9.85
2022-11-16T03:03:33.059Z,9.80
2022-11-16T03:06:04.865Z,9.77
2022-11-16T03:08:38.602Z,9.71
2022-11-16T03:11:26.815Z,9.79
2022-11-16T03:13:57.693Z,9.70
2022-11-16T03:16:29.567Z,9.61
2022-11-16T03:18:58.710Z,9.58
2022-11-16T03:21:27.449Z,9.53
2022-11-16T03:23:54.424Z,9.41
2022-11-16T03:26:24.121Z,9.40
2022-11-16T03:29:15.399Z,9.29
2022-11-16T03:31:49.521Z,9.26
2022-11-16T03:34:21.452Z,9.24
2022-11-16T03:36:48.903Z,9.14
2022-11-16T03:39:26.352Z,9.12
2022-11-16T03:41:53.533Z,9.05
2022-11-16T03:44:21.451Z,8.97
2022-11-16T03:46:48.499Z,8.87
2022-11-16T03:49:16.662Z,8.86
2022-11-16T03:51:43.585Z,8.88
2022-11-16T03:54:10.558Z,8.72
2022-11-16T03:56:39.962Z,8.71
2022-11-16T03:59:06.905Z,8.63
2022-11-16T04:01:34.610Z,8.59
2022-11-16T04:04:01.451Z,8.58
2022-11-16T04:06:47.267Z,8.55
2022-11-16T04:09:32.955Z,8.49
2022-11-16T04:12:18.742Z,8.51
2022-11-16T04:15:04.122Z,8.52
2022-11-16T04:17:52.041Z,8.47
2022-11-16T04:20:38.117Z,8.52
2022-11-16T04:23:33.209Z,8.52
2022-11-16T04:26:02.295Z,8.50
2022-11-16T04:28:31.259Z,8.42
2022-11-16T04:31:22.606Z,8.39
2022-11-16T04:34:15.272Z,8.46
2022-11-16T04:37:05.420Z,8.41
2022-11-16T04:39:32.356Z,8.50
2022-11-16T04:42:19.778Z,8.47
2022-11-16T04:45:08.163Z,8.49
2022-11-16T04:47:48.052Z,8.48
2022-11-16T04:50:15.152Z,8.44
2022-11-16T04:52:42.507Z,8.47
2022-11-16T04:55:13.009Z,8.41
2022-11-16T04:57:40.173Z,8.24
2022-11-16T05:00:08.611Z,8.22
2022-11-16T05:02:37.251Z,8.26
2022-11-16T05:05:04.531Z,8.20
2022-11-16T05:07:31.492Z,8.26
2022-11-16T05:10:07.681Z,8.15
2022-11-16T05:12:35.361Z,8.17
2022-11-16T05:15:05.923Z,8.15
2022-11-16T05:17:34.226Z,8.21
2022-11-16T05:20:20.218Z,8.17
2022-11-16T05:22:57.955Z,8.12
2022-11-16T05:25:33.807Z,8.18
2022-11-16T05:28:05.159Z,8.11
2022-11-16T05:30:34.322Z,8.01
2022-11-16T05:33:03.214Z,8.11
2022-11-16T05:35:33.419Z,8.06
2022-11-16T05:38:01.377Z,8.01
2022-11-16T05:40:29.247Z,7.97
2022-11-16T05:42:58.603Z,7.94
2022-11-16T05:45:28.229Z,7.90
2022-11-16T05:47:56.323Z,7.89
2022-11-16T05:50:23.200Z,7.84
2022-11-16T05:53:03.159Z,7.82
2022-11-16T05:55:30.083Z,7.80
2022-11-16T05:57:56.768Z,7.73
2022-11-16T06:00:23.595Z,7.92
2022-11-16T06:02:52.836Z,7.82
2022-11-16T06:05:27.656Z,7.76
2022-11-16T06:07:55.975Z,7.74
2022-11-16T06:10:23.476Z,7.72
2022-11-16T06:12:52.360Z,7.77
2022-11-16T06:15:19.209Z,7.72
2022-11-16T06:17:46.007Z,7.77
2022-11-16T06:20:12.792Z,7.74
2022-11-16T06:22:40.471Z,7.69
2022-11-16T06:25:08.222Z,7.62
2022-11-16T06:27:40.568Z,7.68
2022-11-16T06:30:09.435Z,7.65
2022-11-16T06:32:37.560Z,7.64
2022-11-16T06:35:06.139Z,7.62
2022-11-16T06:37:33.858Z,7.66
2022-11-16T06:40:00.706Z,7.60
2022-11-16T06:42:30.780Z,7.56
2022-11-16T06:44:59.133Z,7.54
2022-11-16T06:47:30.467Z,7.49
2022-11-16T06:49:58.043Z,7.51
2022-11-16T06:52:24.857Z,7.49
2022-11-16T06:54:51.881Z,7.36
2022-11-16T06:57:18.784Z,7.29
2022-11-16T06:59:46.047Z,7.36
2022-11-16T07:02:13.002Z,7.32
2022-11-16T07:04:41.091Z,7.40
2022-11-16T07:07:07.968Z,7.39
2022-11-16T07:09:37.155Z,7.22
2022-11-16T07:12:04.672Z,7.27
2022-11-16T07:14:36.391Z,7.34
2022-11-16T07:17:09.348Z,7.27
2022-11-16T07:19:36.907Z,7.28
2022-11-16T07:22:04.392Z,7.29
2022-11-16T07:24:32.436Z,7.26
2022-11-16T07:26:59.281Z,7.11
2022-11-16T07:29:30.793Z,7.30
2022-11-16T07:32:12.628Z,7.21
2022-11-16T07:35:14.845Z,7.17
2022-11-16T07:37:42.431Z,7.20
2022-11-16T07:40:10.743Z,7.27
2022-11-16T07:42:38.790Z,7.30
2022-11-16T07:45:24.371Z,7.29
2022-11-16T07:47:57.666Z,7.22
2022-11-16T07:50:53.550Z,7.28
2022-11-16T07:53:21.140Z,7.32
2022-11-16T07:55:54.388Z,7.29
2022-11-16T07:58:23.057Z,7.29
2022-11-16T08:00:50.414Z,7.31
2022-11-16T08:03:21.818Z,7.33
2022-11-16T08:05:59.738Z,7.36
2022-11-16T08:08:26.697Z,7.37
2022-11-16T08:11:03.001Z,7.29
2022-11-16T08:13:34.248Z,7.30
2022-11-16T08:16:02.684Z,7.34
2022-11-16T08:18:30.236Z,7.27
2022-11-16T08:21:01.772Z,7.29
2022-11-16T08:23:29.498Z,7.27
2022-11-16T08:26:01.350Z,7.30
2022-11-16T08:28:29.703Z,7.25
2022-11-16T08:30:58.395Z,7.41
2022-11-16T08:33:26.950Z,7.33
2022-11-16T08:35:55.017Z,7.34
2022-11-16T08:38:21.901Z,7.32
2022-11-16T08:40:50.910Z,7.26
2022-11-16T08:43:18.671Z,7.35
2022-11-16T08:45:48.721Z,7.33
2022-11-16T08:48:15.993Z,7.41
2022-11-16T08:51:10.468Z,7.38
2022-11-16T08:53:30.437Z,7.44
2022-11-16T08:56:05.434Z,7.41
2022-11-16T08:58:32.522Z,7.52
2022-11-16T09:00:59.517Z,7.52
2022-11-16T09:03:27.733Z,7.53
2022-11-16T09:05:54.484Z,7.56
2022-11-16T09:08:21.284Z,7.58
2022-11-16T09:10:47.976Z,7.57
2022-11-16T09:13:14.805Z,7.56
2022-11-16T09:15:41.589Z,7.59
2022-11-16T09:18:08.361Z,7.48
2022-11-16T09:20:35.196Z,7.50
2022-11-16T09:23:01.980Z,7.32
2022-11-16T09:25:28.717Z,7.33
2022-11-16T09:27:55.876Z,7.29
2022-11-16T09:30:22.657Z,7.46
2022-11-16T09:32:49.490Z,7.32
2022-11-16T09:35:17.409Z,7.28
2022-11-16T09:37:44.350Z,7.40
2022-11-16T09:40:12.551Z,7.28
2022-11-16T09:42:51.473Z,7.33
2022-11-16T09:45:30.020Z,7.55
2022-11-16T09:48:01.583Z,7.68
2022-11-16T09:50:34.675Z,7.73
2022-11-16T09:53:19.108Z,7.79
2022-11-16T09:55:49.384Z,7.67
2022-11-16T09:58:22.441Z,7.49
2022-11-16T10:00:59.118Z,7.64
2022-11-16T10:03:27.751Z,7.77
2022-11-16T10:06:03.841Z,7.86
2022-11-16T10:08:44.346Z,7.94
2022-11-16T10:11:14.060Z,8.06
2022-11-16T10:14:04.193Z,8.13
2022-11-16T10:16:34.293Z,8.17
2022-11-16T10:19:09.999Z,8.14
2022-11-16T10:22:18.054Z,8.19
2022-11-16T10:24:58.753Z,8.32
2022-11-16T10:27:55.089Z,8.25
2022-11-16T10:30:22.897Z,8.21
2022-11-16T10:33:09.671Z,8.34
2022-11-16T10:35:54.094Z,8.41
2022-11-16T10:38:28.355Z,8.56
2022-11-16T10:41:03.057Z,8.62
2022-11-16T10:43:32.453Z,8.60
2022-11-16T10:46:20.066Z,8.79
2022-11-16T10:49:05.327Z,8.83
2022-11-16T10:51:32.153Z,8.85
2022-11-16T10:53:59.026Z,8.92
2022-11-16T10:56:32.567Z,8.93
2022-11-16T10:59:05.220Z,8.94
2022-11-16T11:01:50.097Z,8.89
2022-11-16T11:04:21.352Z,8.87
2022-11-16T11:06:51.570Z,8.89
2022-11-16T11:09:31.820Z,8.96
2022-11-16T11:12:34.166Z,9.00
2022-11-16T11:15:26.123Z,9.05
2022-11-16T11:18:11.816Z,9.19
2022-11-16T11:20:44.876Z,9.14
2022-11-16T11:23:22.738Z,9.19
2022-11-16T11:25:59.807Z,9.19
2022-11-16T11:28:38.711Z,9.33
2022-11-16T11:31:29.891Z,9.33
2022-11-16T11:33:57.399Z,9.41
2022-11-16T11:36:27.968Z,9.44
2022-11-16T11:39:00.320Z,9.42
2022-11-16T11:41:33.815Z,9.44
2022-11-16T11:44:06.183Z,9.39
2022-11-16T11:47:06.719Z,9.46
2022-11-16T11:49:33.296Z,9.67
2022-11-16T11:52:06.138Z,9.65
2022-11-16T11:54:36.064Z,9.67
2022-11-16T11:57:03.509Z,9.67
2022-11-16T11:59:30.350Z,9.67
2022-11-16T12:02:03.170Z,9.77
2022-11-16T12:04:53.086Z,9.80
2022-11-16T12:07:26.113Z,9.95
2022-11-16T12:10:29.921Z,9.93
2022-11-16T12:13:04.422Z,9.83
2022-11-16T12:15:52.749Z,9.82
2022-11-16T12:18:25.451Z,9.85
2022-11-16T12:21:01.258Z,9.78
2022-11-16T12:23:46.328Z,9.92
2022-11-16T12:26:41.192Z,9.98
2022-11-16T12:29:16.881Z,10.03
2022-11-16T12:31:55.581Z,10.02
2022-11-16T12:34:35.410Z,10.09
2022-11-16T12:37:49.381Z,10.05
2022-11-16T12:40:28.456Z,10.05
2022-11-16T12:43:04.711Z,10.13
2022-11-16T12:46:06.923Z,10.07
2022-11-16T12:48:48.528Z,10.15
2022-11-16T12:51:21.286Z,10.16
2022-11-16T12:54:23.362Z,10.12
2022-11-16T12:56:59.803Z,10.08
2022-11-16T12:59:58.814Z,10.07
2022-11-16T13:02:50.061Z,9.98
2022-11-16T13:05:16.883Z,10.14
2022-11-16T13:07:53.210Z,9.96
2022-11-16T13:10:24.139Z,9.86
2022-11-16T13:13:09.124Z,9.84
2022-11-16T13:15:41.678Z,9.89
2022-11-16T13:18:13.599Z,9.78
2022-11-16T13:20:46.421Z,9.84
2022-11-16T13:23:33.922Z,9.79
2022-11-16T13:26:21.405Z,9.72
2022-11-16T13:29:01.421Z,9.69
2022-11-16T13:32:03.579Z,9.67
2022-11-16T13:34:33.105Z,9.57
2022-11-16T13:36:59.971Z,9.62
2022-11-16T13:40:05.527Z,9.62
2022-11-16T13:42:44.226Z,9.54
2022-11-16T13:45:16.233Z,9.56
2022-11-16T13:47:50.429Z,9.39
2022-11-16T13:50:20.099Z,9.51
2022-11-16T13:53:46.355Z,9.42
2022-11-16T13:55:40.979Z,9.41
2022-11-16T13:58:11.367Z,9.33
2022-11-16T14:00:41.552Z,9.45
2022-11-16T14:03:17.406Z,9.38
2022-11-16T14:05:46.877Z,9.47
2022-11-16T14:08:19.632Z,9.52
2022-11-16T14:10:50.134Z,9.51
2022-11-16T14:13:47.000Z,9.52
2022-11-16T14:16:20.511Z,9.47
2022-11-16T14:18:48.037Z,9.40
2022-11-16T14:21:36.035Z,9.41
2022-11-16T14:24:29.426Z,9.31
2022-11-16T14:27:07.727Z,9.39
2022-11-16T14:29:49.626Z,9.45
2022-11-16T14:32:29.234Z,9.46
2022-11-16T14:34:57.684Z,9.50
2022-11-16T14:37:30.409Z,9.41
2022-11-16T14:40:07.890Z,9.47
2022-11-16T14:43:01.909Z,9.41
2022-11-16T14:45:35.114Z,9.34
2022-11-16T14:48:05.451Z,9.41
2022-11-16T14:50:38.058Z,9.43
2022-11-16T14:53:09.247Z,9.46
2022-11-16T14:55:42.565Z,9.27
2022-11-16T14:58:19.683Z,9.34
2022-11-16T15:00:58.614Z,9.26
2022-11-16T15:03:37.107Z,9.11
2022-11-16T15:06:04.843Z,9.04
2022-11-16T15:08:39.156Z,9.02
2022-11-16T15:11:08.378Z,9.03
2022-11-16T15:13:36.093Z,9.06
2022-11-16T15:16:29.670Z,9.06
2022-11-16T15:19:00.532Z,9.04
2022-11-16T15:21:28.846Z,9.03
2022-11-16T15:26:43.283Z,8.87
2022-11-16T15:29:17.809Z,8.99
2022-11-16T15:31:44.901Z,8.89
2022-11-16T15:34:18.004Z,9.03
2022-11-16T15:36:45.097Z,8.88
2022-11-16T15:39:14.752Z,8.91
2022-11-16T15:41:42.095Z,8.80
2022-11-16T15:44:15.052Z,8.79
2022-11-16T15:46:53.422Z,8.83
2022-11-16T15:49:31.997Z,8.86
2022-11-16T15:51:59.338Z,8.81
2022-11-16T15:54:29.853Z,8.85
2022-11-16T15:57:04.523Z,8.89
2022-11-16T15:59:34.857Z,8.88
2022-11-16T16:02:02.568Z,8.85
2022-11-16T16:04:29.570Z,8.87
2022-11-16T16:06:58.042Z,8.92
2022-11-16T16:09:26.781Z,8.94
2022-11-16T16:11:55.600Z,8.85
2022-11-16T16:14:29.505Z,8.97
2022-11-16T16:17:00.652Z,8.85
2022-11-16T16:19:30.313Z,8.89
2022-11-16T16:21:58.949Z,8.88
2022-11-16T16:24:36.117Z,8.92
2022-11-16T16:27:02.969Z,8.90
2022-11-16T16:29:29.698Z,8.81
2022-11-16T16:31:56.498Z,8.91
2022-11-16T16:34:24.404Z,8.81
2022-11-16T16:36:51.182Z,8.75
2022-11-16T16:39:17.952Z,8.96
2022-11-16T16:41:44.912Z,8.90
2022-11-16T16:44:14.487Z,8.92
2022-11-16T16:46:41.412Z,8.88
2022-11-16T16:49:08.256Z,8.83
2022-11-16T16:51:35.103Z,8.87
2022-11-16T16:54:01.847Z,8.87
2022-11-16T16:56:28.597Z,8.81
2022-11-16T16:58:55.256Z,8.76
2022-11-16T17:01:22.147Z,8.81
2022-11-16T17:03:48.871Z,8.73
2022-11-16T17:06:15.583Z,8.77
2022-11-16T17:08:42.369Z,8.78
2022-11-16T17:11:10.065Z,8.86
2022-11-16T17:13:36.929Z,8.85
2022-11-16T17:16:05.837Z,8.90
2022-11-16T17:18:32.626Z,8.82
2022-11-16T17:21:07.452Z,8.88
2022-11-16T17:23:35.507Z,8.83
2022-11-16T17:26:07.134Z,8.87
2022-11-16T17:28:34.723Z,8.96
2022-11-16T17:31:05.529Z,8.97
2022-11-16T17:33:36.653Z,9.06
2022-11-16T17:36:04.696Z,8.89
2022-11-16T17:38:32.282Z,8.92
2022-11-16T17:41:08.195Z,8.90
2022-11-16T17:43:35.849Z,8.80
2022-11-16T17:46:16.959Z,8.75
2022-11-16T17:48:45.048Z,8.81
2022-11-16T17:51:13.562Z,8.69
2022-11-16T17:53:40.877Z,8.67
2022-11-16T17:56:08.000Z,8.62
2022-11-16T17:58:34.849Z,8.61
2022-11-16T18:01:01.641Z,8.63
2022-11-16T18:03:28.824Z,8.72
2022-11-16T18:06:09.675Z,8.70
2022-11-16T18:08:37.044Z,8.73
2022-11-16T18:11:05.920Z,8.64
2022-11-16T18:13:33.980Z,8.51
2022-11-16T18:16:04.182Z,8.48
2022-11-16T18:18:30.992Z,8.46
2022-11-16T18:20:58.572Z,8.56
2022-11-16T18:23:25.292Z,8.52
2022-11-16T18:25:52.161Z,8.44
2022-11-16T18:28:18.986Z,8.49
2022-11-16T18:30:45.952Z,8.44
2022-11-16T18:33:12.671Z,8.40
2022-11-16T18:35:39.440Z,8.40
2022-11-16T18:38:07.291Z,8.38
2022-11-16T18:40:34.074Z,8.41
2022-11-16T18:43:00.843Z,8.38
2022-11-16T18:45:27.579Z,8.42
2022-11-16T18:47:54.378Z,8.39
2022-11-16T18:50:26.476Z,8.38
2022-11-16T18:52:53.920Z,8.39
2022-11-16T18:55:20.819Z,8.34
2022-11-16T18:57:47.671Z,8.39
2022-11-16T19:00:15.292Z,8.55
2022-11-16T19:02:42.040Z,8.48
2022-11-16T19:05:08.990Z,8.68
2022-11-16T19:07:35.887Z,8.67
2022-11-16T19:10:02.755Z,8.69
2022-11-16T19:12:29.723Z,8.68
2022-11-16T19:14:56.460Z,8.73
2022-11-16T19:17:24.913Z,8.64
2022-11-16T19:19:51.630Z,8.75
2022-11-16T19:22:19.749Z,8.69
2022-11-16T19:24:46.518Z,8.76
2022-11-16T19:27:13.305Z,8.64
2022-11-16T19:29:40.058Z,8.71
2022-11-16T19:32:06.783Z,8.87
2022-11-16T19:34:33.707Z,8.86
2022-11-16T19:37:00.556Z,8.81
2022-11-16T19:39:27.285Z,8.57
2022-11-16T19:41:55.682Z,8.53
2022-11-16T19:44:22.500Z,8.49
2022-11-16T19:46:49.278Z,8.53
2022-11-16T19:49:20.093Z,8.59
2022-11-16T19:51:47.998Z,8.71
2022-11-16T19:54:14.964Z,8.49
2022-11-16T19:56:42.323Z,8.63
2022-11-16T19:59:09.701Z,8.64
2022-11-16T20:01:36.553Z,8.72
2022-11-16T20:04:03.795Z,8.77
2022-11-16T20:06:32.582Z,8.83
2022-11-16T20:09:02.149Z,8.73
2022-11-16T20:11:31.884Z,8.58
2022-11-16T20:13:59.177Z,8.62
2022-11-16T20:16:28.140Z,8.68
2022-11-16T20:18:55.248Z,8.58
2022-11-16T20:21:24.032Z,8.62
2022-11-16T20:23:51.788Z,8.61
2022-11-16T20:26:20.069Z,8.59
2022-11-16T20:28:46.975Z,8.72
2022-11-16T20:31:15.662Z,8.76
2022-11-16T20:33:43.426Z,8.89
2022-11-16T20:36:11.469Z,8.90
2022-11-16T20:38:39.193Z,9.02
2022-11-16T20:41:09.641Z,9.02
2022-11-16T20:43:37.092Z,9.08
2022-11-16T20:46:04.031Z,9.11
2022-11-16T20:48:30.932Z,9.15
2022-11-16T20:50:57.623Z,9.29
2022-11-16T20:53:24.457Z,9.36
2022-11-16T20:55:51.189Z,9.44
2022-11-16T20:58:22.572Z,9.51
2022-11-16T21:00:50.097Z,9.51
2022-11-16T21:03:17.238Z,9.51
2022-11-16T21:05:45.205Z,9.53
2022-11-16T21:08:12.994Z,9.51
2022-11-16T21:10:39.999Z,9.56
2022-11-16T21:13:26.114Z,9.53
2022-11-16T21:15:57.672Z,9.63
2022-11-16T21:18:30.341Z,9.62
2022-11-16T21:21:01.268Z,9.61
2022-11-16T21:23:29.581Z,9.61
2022-11-16T21:26:01.986Z,9.58
2022-11-16T21:28:29.528Z,9.54
2022-11-16T21:30:56.847Z,9.62
2022-11-16T21:33:24.076Z,9.58
2022-11-16T21:35:52.825Z,9.43
2022-11-16T21:38:23.510Z,9.36
2022-11-16T21:40:52.367Z,9.40
2022-11-16T21:43:19.391Z,9.23
2022-11-16T21:45:47.853Z,9.14
2022-11-16T21:48:14.622Z,9.14
2022-11-16T21:50:41.508Z,9.08
2022-11-16T21:53:08.667Z,9.07
2022-11-16T21:55:35.618Z,8.98
2022-11-16T21:58:05.174Z,8.97
2022-11-16T22:00:32.198Z,8.83
2022-11-16T22:02:59.034Z,8.84
2022-11-16T22:05:44.525Z,8.83
2022-11-16T22:08:14.447Z,8.80
2022-11-16T22:10:41.464Z,8.91
2022-11-16T22:13:08.234Z,8.96
2022-11-16T22:15:34.987Z,9.12
2022-11-16T22:18:02.237Z,9.14
2022-11-16T22:20:29.048Z,9.20
2022-11-16T22:22:56.219Z,9.23
2022-11-16T22:25:22.977Z,9.24
2022-11-16T22:28:18.911Z,9.23
2022-11-16T22:30:36.701Z,9.19
2022-11-16T22:33:03.571Z,9.16
2022-11-16T22:35:30.376Z,9.19
2022-11-16T22:37:57.164Z,9.17
2022-11-16T22:40:24.278Z,9.08
2022-11-16T22:42:51.014Z,9.07
2022-11-16T22:45:17.804Z,9.04
2022-11-16T22:47:44.747Z,9.02
2022-11-16T22:50:11.796Z,8.98
2022-11-16T22:52:38.527Z,8.94
2022-11-16T22:55:05.856Z,8.99
2022-11-16T22:57:32.526Z,8.98
2022-11-16T22:59:59.334Z,9.06
2022-11-16T23:02:26.300Z,9.07
2022-11-16T23:04:53.053Z,9.06
2022-11-16T23:07:19.905Z,9.05
2022-11-16T23:09:46.884Z,9.07
2022-11-16T23:12:32.311Z,9.12
2022-11-16T23:15:18.061Z,9.05
2022-11-16T23:17:45.593Z,9.11
2022-11-16T23:20:32.729Z,9.14
2022-11-16T23:23:18.071Z,9.15
2022-11-16T23:26:14.096Z,9.14
2022-11-16T23:28:40.941Z,9.15
2022-11-16T23:31:07.636Z,9.17
2022-11-16T23:33:47.874Z,9.14
2022-11-16T23:36:14.864Z,9.16
2022-11-16T23:38:41.614Z,9.14
2022-11-16T23:41:26.853Z,9.20
2022-11-16T23:43:59.561Z,9.24
2022-11-16T23:46:31.983Z,9.22
2022-11-16T23:48:58.939Z,9.31
2022-11-16T23:51:25.636Z,9.39
2022-11-16T23:53:53.717Z,9.42
2022-11-16T23:56:21.104Z,9.42
2022-11-16T23:58:48.228Z,9.45
